createdAt,value
2018-07-27T03:25:08.543Z,18.80
2018-07-27T03:28:19.070Z,18.70
2018-07-27T03:31:29.458Z,18.80
2018-07-27T03:34:39.638Z,18.70
2018-07-27T03:37:50.494Z,18.60
2018-07-27T03:41:01.431Z,18.60
2018-07-27T03:44:11.482Z,18.60
2018-07-27T03:47:21.817Z,18.50
2018-07-27T03:50:32.734Z,18.50
2018-07-27T03:53:43.465Z,18.40
2018-07-27T03:56:54.353Z,18.40
2018-07-27T04:00:07.279Z,18.40
2018-07-27T04:03:19.110Z,18.40
2018-07-27T04:06:29.879Z,18.30
2018-07-27T04:09:39.921Z,18.30
2018-07-27T04:12:49.981Z,18.30
2018-07-27T04:16:00.076Z,18.30
2018-07-27T04:19:10.693Z,18.20
2018-07-27T04:22:21.367Z,18.20
2018-07-27T04:25:31.923Z,18.20
2018-07-27T04:28:42.726Z,18.20
2018-07-27T04:31:52.545Z,18.30
2018-07-27T04:35:02.358Z,18.30
2018-07-27T04:38:12.564Z,18.30
2018-07-27T04:41:22.942Z,18.40
2018-07-27T04:44:33.719Z,18.40
2018-07-27T04:47:44.349Z,18.40
2018-07-27T04:50:54.918Z,18.40
2018-07-27T04:54:05.794Z,18.50
2018-07-27T04:57:16.274Z,18.50
2018-07-27T05:00:26.514Z,18.50
2018-07-27T05:03:37.392Z,18.60
2018-07-27T05:06:47.920Z,18.70
2018-07-27T05:09:58.048Z,18.70
2018-07-27T05:13:08.143Z,18.80
2018-07-27T05:16:18.082Z,18.90
2018-07-27T05:19:28.012Z,19.00
2018-07-27T05:22:38.279Z,19.00
2018-07-27T05:25:49.132Z,19.10
2018-07-27T05:28:59.088Z,19.10
2018-07-27T05:32:09.722Z,19.20
2018-07-27T05:35:20.068Z,19.20
2018-07-27T05:38:30.757Z,19.30
2018-07-27T05:41:40.762Z,19.40
2018-07-27T05:44:50.795Z,19.40
2018-07-27T05:48:00.644Z,19.50
2018-07-27T05:54:21.267Z,19.70
2018-07-27T05:57:32.732Z,19.90
2018-07-27T06:00:42.943Z,20.10
2018-07-27T06:03:53.833Z,20.20
2018-07-27T06:07:04.139Z,20.40
2018-07-27T06:10:14.218Z,20.60
2018-07-27T06:13:24.823Z,20.80
2018-07-27T06:16:34.762Z,21.00
2018-07-27T06:19:44.863Z,21.10
2018-07-27T06:22:55.097Z,21.20
2018-07-27T06:26:05.424Z,21.40
2018-07-27T06:29:15.889Z,21.50
2018-07-27T06:32:26.291Z,21.70
2018-07-27T06:35:36.500Z,21.80
2018-07-27T06:38:46.100Z,22.00
2018-07-27T06:41:56.316Z,22.10
2018-07-27T06:45:07.380Z,22.30
2018-07-27T06:48:17.965Z,22.40
2018-07-27T06:51:27.881Z,22.60
2018-07-27T06:54:37.834Z,22.80
2018-07-27T06:57:47.428Z,23.00
2018-07-27T07:00:57.974Z,23.20
2018-07-27T07:04:08.770Z,23.40
2018-07-27T07:07:18.433Z,23.60
2018-07-27T07:10:28.299Z,23.90
2018-07-27T07:13:38.132Z,24.10
2018-07-27T07:16:48.088Z,24.60
2018-07-27T07:19:58.109Z,24.80
2018-07-27T07:23:07.866Z,25.10
2018-07-27T07:26:18.189Z,25.40
2018-07-27T07:29:28.618Z,25.50
2018-07-27T07:32:38.620Z,25.70
2018-07-27T07:35:49.962Z,25.90
2018-07-27T07:39:00.084Z,25.90
2018-07-27T07:42:10.075Z,25.90
2018-07-27T07:45:20.099Z,26.20
2018-07-27T07:48:29.886Z,26.30
2018-07-27T07:51:39.834Z,26.40
2018-07-27T07:54:49.725Z,26.40
2018-07-27T07:57:59.691Z,26.50
2018-07-27T08:01:09.763Z,26.60
2018-07-27T08:04:20.025Z,26.50
2018-07-27T08:07:29.678Z,26.70
2018-07-27T08:10:39.944Z,26.70
2018-07-27T08:13:49.727Z,27.00
2018-07-27T08:49:01.136Z,27.60
2018-07-27T08:52:11.073Z,27.60
2018-07-27T08:55:21.342Z,27.60
2018-07-27T08:58:31.307Z,27.80
2018-07-27T09:01:42.006Z,27.80
2018-07-27T09:04:53.158Z,28.00
2018-07-27T09:08:03.597Z,28.00
2018-07-27T09:11:13.450Z,28.00
2018-07-27T09:14:23.124Z,27.80
2018-07-27T09:17:33.081Z,28.10
2018-07-27T09:20:42.962Z,28.10
2018-07-27T09:23:52.567Z,28.20
2018-07-27T09:27:02.683Z,28.20
2018-07-27T09:30:12.977Z,28.30
2018-07-27T09:33:22.661Z,28.30
2018-07-27T09:36:32.802Z,28.30
2018-07-27T09:39:42.778Z,28.50
2018-07-27T09:42:52.574Z,28.50
2018-07-27T09:46:02.680Z,28.60
2018-07-27T09:49:12.501Z,28.50
2018-07-27T09:52:22.355Z,28.50
2018-07-27T09:55:33.527Z,28.80
2018-07-27T09:58:43.961Z,28.70
2018-07-27T10:01:54.626Z,29.00
2018-07-27T10:05:05.568Z,29.00
2018-07-27T10:08:15.841Z,29.00
2018-07-27T10:11:25.957Z,29.00
2018-07-27T10:14:36.122Z,29.30
2018-07-27T10:17:46.757Z,29.30
2018-07-27T10:20:56.726Z,29.50
2018-07-27T10:24:07.093Z,29.40
2018-07-27T10:27:16.990Z,29.30
2018-07-27T10:30:27.350Z,29.50
2018-07-27T10:33:37.895Z,29.40
2018-07-27T10:36:47.648Z,29.80
2018-07-27T10:39:57.414Z,29.80
2018-07-27T10:43:07.368Z,29.70
2018-07-27T10:46:18.011Z,29.90
2018-07-27T10:49:28.341Z,29.80
2018-07-27T10:52:38.730Z,30.00
2018-07-27T10:55:49.325Z,29.90
2018-07-27T10:58:59.757Z,30.00
2018-07-27T11:02:09.707Z,29.80
2018-07-27T11:05:19.864Z,29.70
2018-07-27T11:08:30.295Z,29.60
2018-07-27T11:11:40.543Z,29.30
2018-07-27T11:14:50.253Z,29.00
2018-07-27T11:21:10.651Z,28.90
2018-07-27T11:24:20.399Z,28.90
2018-07-27T11:27:30.507Z,28.60
2018-07-27T11:30:41.390Z,28.20
2018-07-27T11:37:02.229Z,27.50
2018-07-27T11:40:12.778Z,27.30
2018-07-27T11:49:54.474Z,26.10
2018-07-27T11:53:04.569Z,26.00
2018-07-27T11:56:14.525Z,25.90
2018-07-27T11:59:24.655Z,25.60
2018-07-27T12:02:34.481Z,25.40
2018-07-27T12:08:55.602Z,25.60
2018-07-27T12:12:05.646Z,25.60
2018-07-27T12:15:15.689Z,25.70
2018-07-27T12:18:25.491Z,25.80
2018-07-27T12:24:45.481Z,25.80
2018-07-27T12:27:55.156Z,25.90
2018-07-27T12:31:05.211Z,26.10
2018-07-27T12:34:15.085Z,26.40
2018-07-27T12:37:25.306Z,26.50
2018-07-27T12:40:35.420Z,26.80
2018-07-27T12:43:45.502Z,27.10
2018-07-27T12:46:55.744Z,27.10
2018-07-27T12:50:06.576Z,27.00
2018-07-27T12:53:16.363Z,26.90
2018-07-27T12:56:26.706Z,26.60
2018-07-27T12:59:36.727Z,26.40
2018-07-27T13:09:08.613Z,25.60
2018-07-27T13:12:19.126Z,25.60
2018-07-27T13:15:29.238Z,25.90
2018-07-27T13:18:39.449Z,26.00
2018-07-27T13:21:49.060Z,26.20
2018-07-27T13:24:59.737Z,26.30
2018-07-27T13:28:10.013Z,26.30
2018-07-27T13:31:29.085Z,26.70
2018-07-27T13:34:41.790Z,26.90
2018-07-27T13:37:52.225Z,27.00
2018-07-27T13:41:02.043Z,27.00
2018-07-27T13:44:12.718Z,27.20
2018-07-27T13:47:22.967Z,27.40
2018-07-27T13:50:33.378Z,27.50
2018-07-27T13:53:43.276Z,27.50
2018-07-27T13:56:53.336Z,27.40
2018-07-27T14:00:04.005Z,27.50
2018-07-27T14:03:16.550Z,27.50
2018-07-27T14:06:27.148Z,27.70
2018-07-27T14:09:37.379Z,28.00
2018-07-27T14:12:47.640Z,28.20
2018-07-27T14:15:57.885Z,28.40
2018-07-27T18:10:29.993Z,27.10
2018-07-27T18:13:40.561Z,27.00
2018-07-27T18:16:50.645Z,26.90
2018-07-27T18:20:01.235Z,26.70
2018-07-27T18:23:11.251Z,26.60
2018-07-27T18:26:21.847Z,26.50
2018-07-27T18:29:31.967Z,26.40
2018-07-27T18:32:42.392Z,26.30
2018-07-27T18:35:52.183Z,26.20
2018-07-27T18:39:02.198Z,26.20
2018-07-27T18:42:12.084Z,26.10
2018-07-27T18:45:22.302Z,26.00
2018-07-27T18:48:53.889Z,25.90
2018-07-27T18:52:04.485Z,25.70
2018-07-27T18:55:15.252Z,25.80
2018-07-27T18:58:25.173Z,25.80
2018-07-27T19:01:35.299Z,25.80
2018-07-27T19:04:45.616Z,25.80
2018-07-27T19:07:55.514Z,25.70
2018-07-27T19:11:05.666Z,25.70
2018-07-27T19:14:15.529Z,25.70
2018-07-27T19:17:25.815Z,25.70
2018-07-27T19:20:35.962Z,25.60
2018-07-27T19:23:45.916Z,25.60
2018-07-27T19:26:55.936Z,25.40
2018-07-27T19:30:08.447Z,25.30
2018-07-27T19:33:19.183Z,25.40
2018-07-27T19:36:29.509Z,25.40
2018-07-27T19:39:39.804Z,25.30
2018-07-27T19:42:49.623Z,25.20
2018-07-27T19:49:09.499Z,25.20
2018-07-27T19:52:20.240Z,25.10
2018-07-27T19:55:30.170Z,25.10
2018-07-27T19:58:40.072Z,25.00
2018-07-27T20:01:49.916Z,24.90
2018-07-27T20:04:59.982Z,24.60
2018-07-27T20:08:10.074Z,24.60
2018-07-27T20:11:20.739Z,24.30
2018-07-27T20:14:31.001Z,24.30
2018-07-27T20:17:42.201Z,24.30
2018-07-27T20:20:52.789Z,24.30
2018-07-27T20:24:03.434Z,24.30
2018-07-27T20:27:13.722Z,24.20
2018-07-27T20:30:23.391Z,24.10
2018-07-27T20:33:33.488Z,23.90
2018-07-27T20:36:43.780Z,23.90
2018-07-27T20:39:53.402Z,23.70
2018-07-27T20:43:03.750Z,23.50
2018-07-27T20:46:13.977Z,23.60
2018-07-27T20:49:23.882Z,23.40
2018-07-27T20:52:33.856Z,23.30
2018-07-27T20:55:44.495Z,23.20
2018-07-27T20:58:54.898Z,23.30
2018-07-27T21:02:05.558Z,23.40
2018-07-27T21:05:15.991Z,23.20
2018-07-27T21:08:26.925Z,23.00
2018-07-27T21:11:37.482Z,23.20
2018-07-27T21:14:47.083Z,23.00
2018-07-27T21:17:57.282Z,23.00
2018-07-27T21:21:08.020Z,22.90
2018-07-27T21:24:17.947Z,23.00
2018-07-27T21:27:27.970Z,23.00
2018-07-27T21:30:38.105Z,22.90
2018-07-27T21:33:48.111Z,22.90
2018-07-27T21:36:57.826Z,22.80
2018-07-27T21:40:08.388Z,22.70
2018-07-27T21:43:18.489Z,22.60
2018-07-27T21:46:28.502Z,22.40
2018-07-27T21:49:38.443Z,22.40
2018-07-27T21:52:48.990Z,22.40
2018-07-27T21:55:59.406Z,22.40
2018-07-27T21:59:09.652Z,22.40
2018-07-27T22:02:26.239Z,22.20
2018-07-27T22:05:35.960Z,22.00
2018-07-27T22:08:46.519Z,22.10
2018-07-27T22:11:56.511Z,21.90
2018-07-27T22:15:14.759Z,21.90
2018-07-27T22:18:25.079Z,21.70
2018-07-27T22:21:35.981Z,21.70
2018-07-27T22:24:46.376Z,21.80
2018-07-27T22:27:56.362Z,21.80
2018-07-27T22:31:07.491Z,21.70
2018-07-27T22:34:17.973Z,21.70
2018-07-27T22:37:28.112Z,21.60
2018-07-27T22:40:38.964Z,21.70
2018-07-27T22:43:49.437Z,21.60
2018-07-27T22:47:00.157Z,21.60
2018-07-27T22:50:10.956Z,21.60
2018-07-27T22:53:20.597Z,21.70
2018-07-27T22:56:30.461Z,21.80
2018-07-27T22:59:40.925Z,21.80
2018-07-27T23:02:50.661Z,21.70
2018-07-27T23:06:00.456Z,21.70
2018-07-27T23:09:11.673Z,21.70
2018-07-27T23:12:22.003Z,21.60
2018-07-27T23:15:32.265Z,21.40
2018-07-27T23:18:42.624Z,21.40
2018-07-27T23:21:53.350Z,21.60
2018-07-27T23:25:03.814Z,21.50
2018-07-27T23:28:14.642Z,21.40
2018-07-27T23:31:25.006Z,21.30
2018-07-27T23:34:35.024Z,21.40
2018-07-27T23:37:44.832Z,21.40
2018-07-27T23:40:55.369Z,21.30
2018-07-27T23:44:05.610Z,21.30
2018-07-27T23:47:16.458Z,21.20
2018-07-27T23:50:27.025Z,21.20
2018-07-27T23:53:37.117Z,21.20
2018-07-27T23:56:47.374Z,21.00
2018-07-27T23:59:57.994Z,21.10
